createdAt,value
2023-03-17T00:00:24.303Z,101346.97
2023-03-17T00:02:54.873Z,101351.78
2023-03-17T00:05:29.066Z,101348.09
2023-03-17T00:08:04.303Z,101338.31
2023-03-17T00:10:35.640Z,101339.66
2023-03-17T00:13:07.352Z,101345.22
2023-03-17T00:15:38.587Z,101345.19
2023-03-17T00:18:17.988Z,101345.00
2023-03-17T00:20:50.229Z,101346.31
2023-03-17T00:23:23.480Z,101347.22
2023-03-17T00:25:55.802Z,101338.03
2023-03-17T00:28:29.044Z,101344.69
2023-03-17T00:31:02.480Z,101345.34
2023-03-17T00:33:34.888Z,101343.34
2023-03-17T00:36:06.452Z,101333.19
2023-03-17T00:38:39.011Z,101344.16
2023-03-17T00:41:14.743Z,101341.94
2023-03-17T00:43:47.750Z,101351.00
2023-03-17T00:46:36.928Z,101356.88
2023-03-17T00:49:20.076Z,101362.53
2023-03-17T00:51:52.241Z,101360.47
2023-03-17T00:54:25.748Z,101370.44
2023-03-17T00:56:57.227Z,101372.94
2023-03-17T00:59:44.349Z,101369.25
2023-03-17T01:02:16.352Z,101363.91
2023-03-17T01:04:56.135Z,101361.00
2023-03-17T01:07:27.607Z,101366.16
2023-03-17T01:09:59.105Z,101358.69
2023-03-17T01:12:30.821Z,101357.84
2023-03-17T01:15:02.374Z,101365.47
2023-03-17T01:17:33.942Z,101348.31
2023-03-17T01:20:06.949Z,101354.34
2023-03-17T01:22:38.681Z,101359.56
2023-03-17T01:25:10.502Z,101354.34
2023-03-17T01:27:43.367Z,101358.94
2023-03-17T01:30:24.082Z,101348.31
2023-03-17T01:32:57.121Z,101350.34
2023-03-17T01:35:31.056Z,101341.88
2023-03-17T01:38:02.591Z,101341.03
2023-03-17T01:40:37.421Z,101335.66
2023-03-17T01:43:11.865Z,101338.16
2023-03-17T01:46:19.806Z,101325.06
2023-03-17T01:49:07.281Z,101313.09
2023-03-17T01:51:48.078Z,101311.84
2023-03-17T01:54:51.912Z,101294.34
2023-03-17T01:57:44.301Z,101296.53
2023-03-17T02:00:19.403Z,101296.97
2023-03-17T02:02:53.662Z,101303.53
2023-03-17T02:05:29.712Z,101297.84
2023-03-17T02:08:01.683Z,101303.53
2023-03-17T02:10:33.628Z,101296.13
2023-03-17T02:13:07.248Z,101312.38
2023-03-17T02:15:52.101Z,101303.78
2023-03-17T02:18:28.917Z,101286.66
2023-03-17T02:21:00.673Z,101291.94
2023-03-17T02:23:32.295Z,101294.47
2023-03-17T02:26:05.577Z,101297.91
2023-03-17T02:28:38.479Z,101297.16
2023-03-17T02:31:10.985Z,101302.81
2023-03-17T02:33:42.259Z,101292.38
2023-03-17T02:36:13.837Z,101281.34
2023-03-17T02:38:47.252Z,101278.72
2023-03-17T02:41:18.473Z,101280.97
2023-03-17T02:43:50.161Z,101280.31
2023-03-17T02:46:21.357Z,101275.53
2023-03-17T02:48:52.332Z,101272.00
2023-03-17T02:51:23.572Z,101268.31
2023-03-17T02:53:54.623Z,101266.75
2023-03-17T02:56:26.060Z,101259.44
2023-03-17T02:58:57.587Z,101255.34
2023-03-17T03:01:29.336Z,101253.94
2023-03-17T03:04:01.218Z,101256.66
2023-03-17T03:06:33.246Z,101239.91
2023-03-17T03:09:05.292Z,101246.75
2023-03-17T03:11:37.586Z,101232.00
2023-03-17T03:14:09.850Z,101244.00
2023-03-17T03:16:41.069Z,101225.50
2023-03-17T03:19:12.658Z,101224.72
2023-03-17T03:21:44.044Z,101224.66
2023-03-17T03:24:15.400Z,101218.06
2023-03-17T03:26:46.698Z,101219.97
2023-03-17T03:29:18.317Z,101218.94
2023-03-17T03:31:50.231Z,101202.97
2023-03-17T03:34:20.784Z,101203.06
2023-03-17T03:36:52.672Z,101209.44
2023-03-17T03:39:24.315Z,101217.31
2023-03-17T03:41:59.833Z,101203.34
2023-03-17T03:44:31.316Z,101207.75
2023-03-17T03:47:02.214Z,101204.28
2023-03-17T03:49:33.302Z,101203.88
2023-03-17T03:52:04.239Z,101208.47
2023-03-17T03:54:36.790Z,101213.84
2023-03-17T03:57:08.082Z,101214.53
2023-03-17T03:59:39.612Z,101212.59
2023-03-17T04:02:10.341Z,101214.41
2023-03-17T04:04:41.957Z,101217.47
2023-03-17T04:07:13.704Z,101212.38
2023-03-17T04:09:45.366Z,101205.69
2023-03-17T04:12:16.470Z,101205.91
2023-03-17T04:14:48.434Z,101214.06
2023-03-17T04:17:19.752Z,101205.31
2023-03-17T04:19:51.744Z,101206.63
2023-03-17T04:22:23.693Z,101205.50
2023-03-17T04:24:55.187Z,101211.00
2023-03-17T04:27:26.773Z,101214.44
2023-03-17T04:29:57.562Z,101215.44
2023-03-17T04:32:28.733Z,101208.72
2023-03-17T04:35:00.337Z,101211.66
2023-03-17T04:37:34.522Z,101211.47
2023-03-17T04:40:06.899Z,101209.66
2023-03-17T04:42:39.564Z,101216.69
2023-03-17T04:45:13.299Z,101219.69
2023-03-17T04:47:45.028Z,101216.44
2023-03-17T04:50:16.847Z,101215.31
2023-03-17T04:52:48.150Z,101216.44
2023-03-17T04:55:19.788Z,101216.50
2023-03-17T04:57:51.013Z,101216.19
2023-03-17T05:00:22.809Z,101230.69
2023-03-17T05:02:54.938Z,101229.66
2023-03-17T05:05:26.700Z,101236.25
2023-03-17T05:07:57.865Z,101230.19
2023-03-17T05:10:29.408Z,101240.53
2023-03-17T05:13:00.672Z,101232.03
2023-03-17T05:15:32.097Z,101231.47
2023-03-17T05:18:04.967Z,101225.97
2023-03-17T05:20:36.167Z,101223.34
2023-03-17T05:23:07.504Z,101221.81
2023-03-17T05:25:39.153Z,101226.84
2023-03-17T05:28:11.539Z,101231.59
2023-03-17T05:30:42.994Z,101233.16
2023-03-17T05:33:13.922Z,101235.47
2023-03-17T05:35:45.513Z,101230.13
2023-03-17T05:38:17.498Z,101242.69
2023-03-17T05:40:50.801Z,101236.28
2023-03-17T05:43:22.822Z,101238.63
2023-03-17T05:45:59.056Z,101242.41
2023-03-17T05:48:34.052Z,101237.53
2023-03-17T05:51:05.920Z,101241.72
2023-03-17T05:53:37.984Z,101243.78
2023-03-17T05:56:09.476Z,101245.06
2023-03-17T05:58:40.782Z,101250.53
2023-03-17T06:01:12.128Z,101254.03
2023-03-17T06:03:44.257Z,101257.13
2023-03-17T06:06:15.599Z,101258.81
2023-03-17T06:08:47.316Z,101262.25
2023-03-17T06:11:21.354Z,101252.16
2023-03-17T06:13:52.535Z,101255.56
2023-03-17T06:16:25.100Z,101259.66
2023-03-17T06:18:56.663Z,101258.19
2023-03-17T06:21:28.697Z,101264.03
2023-03-17T06:23:59.864Z,101261.56
2023-03-17T06:26:30.882Z,101265.09
2023-03-17T06:29:06.929Z,101278.88
2023-03-17T06:31:39.418Z,101266.75
2023-03-17T06:34:12.181Z,101270.78
2023-03-17T06:36:43.623Z,101275.69
2023-03-17T06:39:17.166Z,101275.75
2023-03-17T06:41:48.718Z,101265.09
2023-03-17T06:44:20.820Z,101276.03
2023-03-17T06:46:52.581Z,101277.41
2023-03-17T06:49:23.779Z,101278.53
2023-03-17T06:51:55.599Z,101289.25
2023-03-17T06:54:27.480Z,101289.53
2023-03-17T06:56:58.656Z,101282.66
2023-03-17T06:59:32.292Z,101286.78
2023-03-17T07:02:03.903Z,101291.97
2023-03-17T07:04:38.994Z,101284.56
2023-03-17T07:07:10.839Z,101289.34
2023-03-17T07:09:42.541Z,101291.50
2023-03-17T07:12:14.007Z,101284.69
2023-03-17T07:14:45.180Z,101286.00
2023-03-17T07:17:17.243Z,101288.53
2023-03-17T07:19:48.602Z,101294.75
2023-03-17T07:22:19.855Z,101291.06
2023-03-17T07:24:51.171Z,101287.38
2023-03-17T07:27:24.010Z,101299.91
2023-03-17T07:29:55.942Z,101293.41
2023-03-17T07:32:27.534Z,101297.22
2023-03-17T07:34:59.865Z,101295.88
2023-03-17T07:37:34.879Z,101293.50
2023-03-17T07:40:06.728Z,101294.06
2023-03-17T07:42:39.146Z,101294.78
2023-03-17T07:45:11.606Z,101299.63
2023-03-17T07:47:43.127Z,101300.41
2023-03-17T07:50:13.873Z,101304.22
2023-03-17T07:52:45.036Z,101300.41
2023-03-17T07:55:17.446Z,101307.56
2023-03-17T07:57:48.963Z,101326.09
2023-03-17T08:00:21.153Z,101323.16
2023-03-17T08:03:06.985Z,101314.44
2023-03-17T08:05:41.246Z,101326.69
2023-03-17T08:08:12.532Z,101334.78
2023-03-17T08:10:43.739Z,101332.00
2023-03-17T08:13:15.694Z,101330.34
2023-03-17T08:15:47.859Z,101314.53
2023-03-17T08:18:20.015Z,101333.94
2023-03-17T08:20:52.835Z,101338.63
2023-03-17T08:23:24.801Z,101322.78
2023-03-17T08:26:00.680Z,101331.00
2023-03-17T08:28:33.018Z,101337.00
2023-03-17T08:31:24.265Z,101335.38
2023-03-17T08:33:58.558Z,101346.28
2023-03-17T08:36:29.936Z,101342.97
2023-03-17T08:39:01.030Z,101348.72
2023-03-17T08:41:32.502Z,101345.44
2023-03-17T08:44:03.930Z,101342.53
2023-03-17T08:46:36.004Z,101347.97
2023-03-17T08:49:08.165Z,101343.09
2023-03-17T08:51:40.777Z,101338.50
2023-03-17T08:54:13.001Z,101334.34
2023-03-17T08:56:44.435Z,101329.72
2023-03-17T08:59:16.975Z,101333.81
2023-03-17T09:01:48.642Z,101327.84
2023-03-17T09:04:19.906Z,101323.47
2023-03-17T09:07:02.717Z,101311.72
2023-03-17T09:09:39.045Z,101313.59
2023-03-17T09:12:11.644Z,101304.59
2023-03-17T09:14:44.685Z,101301.31
2023-03-17T09:17:16.835Z,101305.38
2023-03-17T09:19:47.537Z,101323.41
2023-03-17T09:22:20.485Z,101312.53
2023-03-17T09:24:52.269Z,101315.03
2023-03-17T09:27:23.543Z,101321.53
2023-03-17T09:29:54.825Z,101332.22
2023-03-17T09:32:26.235Z,101326.22
2023-03-17T09:34:57.859Z,101332.47
2023-03-17T09:37:29.347Z,101330.59
2023-03-17T09:40:00.576Z,101324.00
2023-03-17T09:42:41.333Z,101323.16
2023-03-17T09:45:31.033Z,101323.75
2023-03-17T09:48:55.152Z,101325.13
2023-03-17T09:51:26.570Z,101327.63
2023-03-17T09:54:10.455Z,101318.28
2023-03-17T09:56:45.581Z,101321.28
2023-03-17T09:59:59.848Z,101314.22
2023-03-17T10:02:35.453Z,101317.50
2023-03-17T10:05:16.310Z,101320.22
2023-03-17T10:08:28.947Z,101327.59
2023-03-17T10:11:11.011Z,101330.06
2023-03-17T10:14:00.758Z,101314.25
2023-03-17T10:16:41.004Z,101309.28
2023-03-17T10:19:31.415Z,101304.91
2023-03-17T10:22:19.120Z,101298.09
2023-03-17T10:24:54.572Z,101303.56
2023-03-17T10:27:25.900Z,101304.66
2023-03-17T10:29:58.578Z,101312.81
2023-03-17T10:32:30.433Z,101317.50
2023-03-17T10:35:02.021Z,101310.88
2023-03-17T10:37:38.053Z,101308.69
2023-03-17T10:40:13.875Z,101314.13
2023-03-17T10:42:50.789Z,101299.91
2023-03-17T10:45:32.290Z,101296.03
2023-03-17T10:48:05.945Z,101301.88
2023-03-17T10:50:39.699Z,101295.03
2023-03-17T10:53:21.954Z,101298.63
2023-03-17T10:55:54.912Z,101302.38
2023-03-17T10:58:55.316Z,101316.41
2023-03-17T11:01:47.381Z,101308.22
2023-03-17T11:04:37.798Z,101308.50
2023-03-17T11:07:19.643Z,101307.88
2023-03-17T11:09:55.324Z,101312.03
2023-03-17T11:12:40.788Z,101308.78
2023-03-17T11:15:19.360Z,101307.78
2023-03-17T11:18:15.020Z,101302.31
2023-03-17T11:20:58.465Z,101301.75
2023-03-17T11:23:42.242Z,101291.72
2023-03-17T11:26:31.295Z,101291.72
2023-03-17T11:29:17.692Z,101294.22
2023-03-17T11:32:19.584Z,101296.13
2023-03-17T11:35:11.559Z,101290.69
2023-03-17T11:38:16.560Z,101296.72
2023-03-17T11:41:01.834Z,101302.50
2023-03-17T11:43:39.466Z,101315.59
2023-03-17T11:46:15.210Z,101312.59
2023-03-17T11:48:47.361Z,101309.56
2023-03-17T11:51:31.881Z,101316.09
2023-03-17T11:54:13.609Z,101326.72
2023-03-17T11:56:53.248Z,101329.19
2023-03-17T11:59:31.419Z,101328.38
2023-03-17T12:02:28.806Z,101342.31
2023-03-17T12:05:26.564Z,101346.13
2023-03-17T12:08:02.139Z,101358.47
2023-03-17T12:10:58.972Z,101360.84
2023-03-17T12:13:44.568Z,101355.50
2023-03-17T12:16:22.730Z,101360.09
2023-03-17T12:19:18.401Z,101352.97
2023-03-17T12:21:55.806Z,101347.31
2023-03-17T12:24:45.201Z,101346.47
2023-03-17T12:27:23.585Z,101346.47
2023-03-17T12:30:01.682Z,101339.69
2023-03-17T12:32:43.490Z,101336.09
2023-03-17T12:35:30.690Z,101333.38
2023-03-17T12:38:04.387Z,101336.16
2023-03-17T12:40:40.995Z,101324.41
2023-03-17T12:43:36.425Z,101324.97
2023-03-17T12:46:20.005Z,101321.19
2023-03-17T12:49:12.435Z,101328.56
2023-03-17T12:51:51.631Z,101325.00
2023-03-17T12:54:29.021Z,101326.13
2023-03-17T12:57:17.340Z,101328.28
2023-03-17T12:59:51.184Z,101328.81
2023-03-17T13:02:31.735Z,101337.53
2023-03-17T13:05:03.524Z,101329.34
2023-03-17T13:07:54.183Z,101331.56
2023-03-17T13:10:44.149Z,101333.25
2023-03-17T13:13:38.090Z,101327.75
2023-03-17T13:16:29.225Z,101327.81
2023-03-17T13:19:24.339Z,101328.91
2023-03-17T13:22:15.747Z,101338.78
2023-03-17T13:24:53.227Z,101355.13
2023-03-17T13:27:33.556Z,101354.63
2023-03-17T13:30:28.805Z,101363.34
2023-03-17T13:33:21.334Z,101359.50
2023-03-17T13:36:07.777Z,101371.25
2023-03-17T13:39:22.378Z,101377.81
2023-03-17T13:42:19.847Z,101382.16
2023-03-17T13:45:28.013Z,101378.59
2023-03-17T13:48:30.458Z,101378.34
2023-03-17T13:51:12.239Z,101388.47
2023-03-17T13:53:55.931Z,101390.63
2023-03-17T13:56:51.704Z,101403.16
2023-03-17T13:59:26.491Z,101396.31
2023-03-17T14:02:22.894Z,101396.31
2023-03-17T14:05:09.306Z,101391.97
2023-03-17T14:07:52.388Z,101381.91
2023-03-17T14:10:27.541Z,101385.16
2023-03-17T14:13:22.877Z,101378.34
2023-03-17T14:16:05.229Z,101372.31
2023-03-17T14:18:42.164Z,101373.72
2023-03-17T14:21:25.899Z,101381.06
2023-03-17T14:23:59.024Z,101377.00
2023-03-17T14:26:32.716Z,101374.25
2023-03-17T14:29:06.168Z,101374.00
2023-03-17T14:31:37.338Z,101361.19
2023-03-17T14:34:16.169Z,101368.28
2023-03-17T14:36:47.806Z,101369.63
2023-03-17T14:39:25.864Z,101358.72
2023-03-17T14:42:06.174Z,101362.22
2023-03-17T14:44:43.087Z,101367.66
2023-03-17T14:47:26.078Z,101366.03
2023-03-17T14:49:57.772Z,101362.72
2023-03-17T14:52:33.966Z,101372.81
2023-03-17T14:55:05.271Z,101403.13
2023-03-17T14:57:40.264Z,101375.84
2023-03-17T15:00:24.002Z,101378.00
2023-03-17T15:03:00.462Z,101375.53
2023-03-17T15:05:43.072Z,101359.50
2023-03-17T15:08:49.834Z,101353.78
2023-03-17T15:11:27.906Z,101368.28
2023-03-17T15:14:24.746Z,101380.31
2023-03-17T15:16:58.038Z,101374.28
2023-03-17T15:19:36.318Z,101374.31
2023-03-17T15:22:28.500Z,101381.13
2023-03-17T15:25:21.895Z,101393.41
2023-03-17T15:27:53.644Z,101384.41
2023-03-17T15:30:37.484Z,101358.53
2023-03-17T15:33:23.437Z,101384.94
2023-03-17T15:36:01.747Z,101397.22
2023-03-17T15:38:33.762Z,101394.50
2023-03-17T15:41:05.149Z,101398.28
2023-03-17T15:43:36.544Z,101387.66
2023-03-17T15:46:12.742Z,101379.75
2023-03-17T15:48:44.282Z,101388.47
2023-03-17T15:51:15.762Z,101390.13
2023-03-17T15:53:48.968Z,101389.81
2023-03-17T15:56:22.635Z,101379.75
2023-03-17T15:58:54.278Z,101382.75
2023-03-17T16:01:27.850Z,101377.59
2023-03-17T16:03:59.610Z,101360.97
2023-03-17T16:06:31.135Z,101365.31
2023-03-17T16:09:02.253Z,101380.03
2023-03-17T16:11:34.103Z,101385.19
2023-03-17T16:14:05.233Z,101378.09
2023-03-17T16:16:41.312Z,101385.72
2023-03-17T16:19:26.077Z,101387.31
2023-03-17T16:21:57.953Z,101387.84
2023-03-17T16:24:29.758Z,101393.31
2023-03-17T16:27:01.261Z,101398.22
2023-03-17T16:29:32.663Z,101390.84
2023-03-17T16:32:03.699Z,101395.97
2023-03-17T16:34:35.036Z,101398.97
2023-03-17T16:37:07.203Z,101414.50
2023-03-17T16:39:38.563Z,101421.53
2023-03-17T16:42:21.772Z,101415.53
2023-03-17T16:44:53.448Z,101416.72
2023-03-17T16:47:24.527Z,101416.19
2023-03-17T16:49:55.769Z,101423.19
2023-03-17T16:52:29.868Z,101415.81
2023-03-17T16:55:01.606Z,101423.97
2023-03-17T16:57:34.656Z,101432.41
2023-03-17T17:00:07.449Z,101434.28
2023-03-17T17:02:38.661Z,101446.28
2023-03-17T17:05:21.194Z,101447.41
2023-03-17T17:07:56.078Z,101444.06
2023-03-17T17:10:30.445Z,101444.38
2023-03-17T17:13:01.918Z,101447.09
2023-03-17T17:15:33.566Z,101444.69
2023-03-17T17:18:10.398Z,101444.09
2023-03-17T17:20:43.261Z,101442.72
2023-03-17T17:23:17.605Z,101432.91
2023-03-17T17:25:50.112Z,101433.47
2023-03-17T17:28:24.031Z,101434.03
2023-03-17T17:30:56.019Z,101422.53
2023-03-17T17:33:27.836Z,101427.72
2023-03-17T17:35:59.267Z,101439.13
2023-03-17T17:38:31.781Z,101436.41
2023-03-17T17:41:10.499Z,101443.75
2023-03-17T17:43:42.582Z,101453.56
2023-03-17T17:46:20.228Z,101473.91
2023-03-17T17:48:52.124Z,101489.16
2023-03-17T17:51:23.309Z,101496.75
2023-03-17T17:53:54.552Z,101485.50
2023-03-17T17:56:27.613Z,101508.47
2023-03-17T17:58:59.056Z,101514.69
2023-03-17T18:01:30.075Z,101523.47
2023-03-17T18:04:01.675Z,101527.84
2023-03-17T18:06:33.022Z,101521.63
2023-03-17T18:09:04.635Z,101525.66
2023-03-17T18:11:35.911Z,101519.44
2023-03-17T18:14:08.106Z,101521.50
2023-03-17T18:16:40.463Z,101527.22
2023-03-17T18:19:14.077Z,101529.03
2023-03-17T18:21:46.138Z,101533.81
2023-03-17T18:24:17.855Z,101538.44
2023-03-17T18:26:49.105Z,101550.69
2023-03-17T18:29:20.116Z,101551.72
2023-03-17T18:31:54.374Z,101550.97
2023-03-17T18:34:33.141Z,101549.38
2023-03-17T18:37:04.439Z,101546.06
2023-03-17T18:39:35.839Z,101553.22
2023-03-17T18:42:07.553Z,101539.25
2023-03-17T18:44:39.023Z,101554.19
2023-03-17T18:47:10.300Z,101557.41
2023-03-17T18:49:41.282Z,101554.19
2023-03-17T18:52:14.622Z,101562.13
2023-03-17T18:54:45.983Z,101555.38
2023-03-17T18:57:18.352Z,101560.50
2023-03-17T18:59:50.089Z,101575.00
2023-03-17T19:02:21.117Z,101577.88
2023-03-17T19:04:52.766Z,101592.03
2023-03-17T19:07:23.904Z,101610.25
2023-03-17T19:09:55.107Z,101613.88
2023-03-17T19:12:26.979Z,101620.03
2023-03-17T19:14:58.379Z,101633.72
2023-03-17T19:17:29.892Z,101634.56
2023-03-17T19:20:01.139Z,101630.31
2023-03-17T19:22:34.170Z,101628.75
2023-03-17T19:25:05.880Z,101634.22
2023-03-17T19:27:38.090Z,101632.31
2023-03-17T19:30:10.512Z,101628.97
2023-03-17T19:32:42.374Z,101624.44
2023-03-17T19:35:14.030Z,101611.06
2023-03-17T19:37:44.711Z,101601.25
2023-03-17T19:40:16.321Z,101594.41
2023-03-17T19:42:46.707Z,101595.50
2023-03-17T19:45:17.740Z,101600.97
2023-03-17T19:47:49.171Z,101603.94
2023-03-17T19:50:20.175Z,101603.63
2023-03-17T19:52:53.881Z,101614.28
2023-03-17T19:55:31.521Z,101610.94
2023-03-17T19:58:05.636Z,101623.91
2023-03-17T20:00:36.950Z,101617.75
2023-03-17T20:03:08.830Z,101617.53
2023-03-17T20:05:40.531Z,101621.63
2023-03-17T20:08:11.899Z,101634.13
2023-03-17T20:10:43.439Z,101628.81
2023-03-17T20:13:17.687Z,101617.19
2023-03-17T20:15:49.864Z,101625.78
2023-03-17T20:18:21.508Z,101614.38
2023-03-17T20:20:56.515Z,101614.50
2023-03-17T20:23:28.400Z,101622.38
2023-03-17T20:26:00.203Z,101627.41
2023-03-17T20:28:30.811Z,101629.94
2023-03-17T20:31:04.609Z,101640.97
2023-03-17T20:33:36.569Z,101642.75
2023-03-17T20:36:07.844Z,101648.88
2023-03-17T20:38:40.483Z,101642.09
2023-03-17T20:41:15.114Z,101644.13
2023-03-17T20:43:47.587Z,101647.25
2023-03-17T20:46:22.145Z,101654.03
2023-03-17T20:49:00.067Z,101658.69
2023-03-17T20:51:31.516Z,101666.31
2023-03-17T20:54:03.762Z,101661.97
2023-03-17T20:56:38.914Z,101665.03
2023-03-17T20:59:11.429Z,101657.75
2023-03-17T21:01:44.138Z,101654.09
2023-03-17T21:04:17.519Z,101668.34
2023-03-17T21:06:49.935Z,101672.84
2023-03-17T21:09:21.231Z,101680.78
2023-03-17T21:11:52.696Z,101685.38
2023-03-17T21:14:24.642Z,101678.88
2023-03-17T21:16:56.474Z,101684.50
2023-03-17T21:19:27.715Z,101680.16
2023-03-17T21:21:59.395Z,101683.31
2023-03-17T21:24:33.910Z,101691.16
2023-03-17T21:27:07.448Z,101685.34
2023-03-17T21:29:39.003Z,101686.34
2023-03-17T21:32:10.566Z,101685.19
2023-03-17T21:34:42.417Z,101689.13
2023-03-17T21:37:13.126Z,101705.50
2023-03-17T21:39:44.548Z,101698.78
2023-03-17T21:42:16.434Z,101697.16
2023-03-17T21:44:49.759Z,101700.03
2023-03-17T21:47:22.029Z,101697.47
2023-03-17T21:49:53.366Z,101703.19
2023-03-17T21:52:24.876Z,101710.97
2023-03-17T21:54:56.232Z,101715.00
2023-03-17T21:57:29.206Z,101722.84
2023-03-17T22:00:00.698Z,101722.25
2023-03-17T22:02:32.313Z,101711.97
2023-03-17T22:05:03.281Z,101711.19
2023-03-17T22:07:34.757Z,101713.88
2023-03-17T22:10:08.685Z,101725.16
2023-03-17T22:12:40.382Z,101726.78
2023-03-17T22:15:12.020Z,101710.47
2023-03-17T22:17:42.365Z,101716.31
2023-03-17T22:20:14.015Z,101718.31
2023-03-17T22:22:45.232Z,101724.03
2023-03-17T22:25:16.537Z,101719.69
2023-03-17T22:27:48.294Z,101723.09
2023-03-17T22:30:20.551Z,101726.34
2023-03-17T22:32:52.403Z,101739.25
2023-03-17T22:35:25.101Z,101740.72
2023-03-17T22:37:56.754Z,101726.72
2023-03-17T22:40:27.460Z,101717.69
2023-03-17T22:43:02.484Z,101722.84
2023-03-17T22:45:34.118Z,101713.50
2023-03-17T22:48:05.931Z,101720.69
2023-03-17T22:50:36.498Z,101702.31
2023-03-17T22:53:07.451Z,101702.34
2023-03-17T22:55:38.979Z,101700.69
2023-03-17T22:58:09.778Z,101704.06
2023-03-17T23:00:41.916Z,101724.72
2023-03-17T23:03:13.227Z,101723.28
2023-03-17T23:05:51.944Z,101718.44
2023-03-17T23:08:23.532Z,101720.78
2023-03-17T23:10:55.520Z,101715.59
2023-03-17T23:13:26.767Z,101720.00
2023-03-17T23:15:58.500Z,101720.94
2023-03-17T23:18:30.434Z,101726.25
2023-03-17T23:21:03.126Z,101728.75
2023-03-17T23:23:34.935Z,101718.03
2023-03-17T23:26:07.470Z,101711.66
2023-03-17T23:28:39.075Z,101721.94
2023-03-17T23:31:10.365Z,101719.72
2023-03-17T23:33:41.730Z,101722.59
2023-03-17T23:36:13.103Z,101724.72
2023-03-17T23:38:45.883Z,101708.00
2023-03-17T23:41:18.329Z,101714.78
2023-03-17T23:43:49.586Z,101709.28
2023-03-17T23:46:20.297Z,101713.72
2023-03-17T23:48:52.045Z,101720.66
2023-03-17T23:51:23.850Z,101730.44
2023-03-17T23:53:55.255Z,101728.56
2023-03-17T23:56:26.398Z,101730.47
2023-03-17T23:58:57.823Z,101710.78
